Nearby METAR Reports

 

LGBL - Nea Anchialos, Greece
Distance from station: ΝΔ 21km
Ενημερώθηκε: 28/07/2014 22:50
Few Clouds
Few Clouds
 Ανεμος από ΑΝΑ
Ανεμος: ΑΝΑ 7 km/h
Θερμοκρασία: 26°C
Σημείο Δρόσου: 20°C
Υγρασία: 70%
Βαρόμετρο: 1008 hPa
Clouds: Few Clouds
Visibility: 10 km
Cloud details: Few Clouds 1067 m
2014/07/28 19:50 LGBL 281950Z 11004KT 9999 FEW035 26/20 Q1008 NOSIG BLU
LGSK - Skiathos Island, Greece
Distance from station: ΑΝΑ 51km
Ενημερώθηκε: 28/07/2014 22:50
Αίθριος
Αίθριος
 Ανεμος από calm
Ανεμος: Απνοια
Θερμοκρασία: 26°C
Σημείο Δρόσου: 22°C
Υγρασία: 79%
Βαρόμετρο: 1008 hPa
Περίληψη: Αίθριος
Visibility: greater than 10 km
2014/07/28 19:50 LGSK 281950Z 00000KT CAVOK 26/22 Q1008
 
LGTS - Thessaloniki/Mik, Greece
Distance from station: 0 128km
Ενημερώθηκε: 28/07/2014 23:20
Partly Cloudy
Partly Cloudy
 Ανεμος από varies
Ανεμος: varies 4 km/h
Θερμοκρασία: 27°C
Heat Index: 29°C
Σημείο Δρόσου: 21°C
Υγρασία: 70%
Βαρόμετρο: 1009 hPa
Clouds: Partly Cloudy
Visibility: 10 km
Cloud details: Few Clouds 762 m
Partly Cloudy 2438 m
2014/07/28 20:20 LGTS 282020Z VRB02KT 9999 FEW025 SCT080 27/21 Q1009 NOSIG
LGSY - Skiros, Greece
Distance from station: ΑΝΑ 139km
Ενημερώθηκε: 28/07/2014 20:50
NOT Current
Few Clouds
Few Clouds
 Ανεμος από ΑΒΑ
Ανεμος: ΑΒΑ 7 km/h
Θερμοκρασία: 27°C
Heat Index: 29°C
Σημείο Δρόσου: 22°C
Υγρασία: 74%
Βαρόμετρο: 1006 hPa
Clouds: Few Clouds
Visibility: 10 km
Cloud details: Few Clouds 610 m
2014/07/28 17:50 LGSY 281750Z 07004KT 9999 FEW020 27/22 Q1006 NOSIG BLU
 
LGKZ - Kozani (civ/Army, Greece
Distance from station: ΒΔ 140km
Ενημερώθηκε: 28/07/2014 23:20

 Ανεμος από varies
Ανεμος: varies 4 km/h
Θερμοκρασία: 22°C
Σημείο Δρόσου: 13°C
Υγρασία: 57%
Βαρόμετρο: 1013 hPa
2014/07/28 20:20 LGKZ 282020Z AUTO VRB02KT //// // ////// 22/13 Q1013 RE//
LGEL - Elefsis (hel-Afb, Greece
Distance from station: ΝΝΑ 153km
Ενημερώθηκε: 28/07/2014 23:20
Αίθριος
Αίθριος
 Ανεμος από Β
Ανεμος: Β 7 km/h
Θερμοκρασία: 27°C
Heat Index: 28°C
Σημείο Δρόσου: 18°C
Υγρασία: 58%
Βαρόμετρο: 1008 hPa
Περίληψη: Αίθριος
Visibility: greater than 10 km
2014/07/28 20:20 LGEL 282020Z 01004KT CAVOK 27/18 Q1008 NOSIG
 
LGAV - Athens/Elef-Ven, Greece
Distance from station: ΝΝΑ 181km
Ενημερώθηκε: 28/07/2014 23:20
Αίθριος
Αίθριος
 Ανεμος από Β
Ανεμος: Β 4 km/h
Θερμοκρασία: 25°C
Σημείο Δρόσου: 18°C
Υγρασία: 65%
Βαρόμετρο: 1009 hPa
Περίληψη: Αίθριος
Visibility: greater than 10 km
2014/07/28 20:20 LGAV 282020Z 35002KT CAVOK 25/18 Q1009 NOSIG
LGIO - Ioannina, Greece
Distance from station: ΔΒΔ 187km
Ενημερώθηκε: 28/07/2014 23:20

 Ανεμος από varies
Ανεμος: varies 2 km/h
Θερμοκρασία: 20°C
Σημείο Δρόσου: 17°C
Υγρασία: 83%
Βαρόμετρο: 1013 hPa
2014/07/28 20:20 LGIO 282020Z AUTO VRB01KT //// // ////// 20/17 Q1013 RE//
 
LGRX - Araxos (civ/Afb), Greece
Distance from station: ΝΔ 188km
Ενημερώθηκε: 28/07/2014 22:50
Few Clouds
Few Clouds
 Ανεμος από Δ
Ανεμος: Δ 9 km/h
Θερμοκρασία: 25°C
Σημείο Δρόσου: 22°C
Υγρασία: 83%
Βαρόμετρο: 1011 hPa
Clouds: Few Clouds
Visibility: 10 km
Cloud details: Few Clouds 610 m
2014/07/28 19:50 LGRX 281950Z 28005KT 9999 FEW020 25/22 Q1011 NOSIG BLU
LGLM - Limnos Island Ar, Greece
Distance from station: ΑΒΑ 205km
Ενημερώθηκε: 28/07/2014 23:20
Αίθριος
Αίθριος
 Ανεμος από calm
Ανεμος: Απνοια
Θερμοκρασία: 22°C
Σημείο Δρόσου: 17°C
Υγρασία: 73%
Βαρόμετρο: 1008 hPa
Περίληψη: Αίθριος
Visibility: greater than 10 km
2014/07/28 20:20 LGLM 282020Z 00000KT CAVOK 22/17 Q1008
 
LGPZ - Preveza/Aktion, Greece
Distance from station: ΔΝΔ 206km
Ενημερώθηκε: 28/07/2014 22:50
Few Clouds
Few Clouds
 Ανεμος από Δ
Ανεμος: Δ 19 km/h
Θερμοκρασία: 25°C
Σημείο Δρόσου: 21°C
Υγρασία: 79%
Βαρόμετρο: 1012 hPa
Clouds: Few Clouds
Visibility: 10 km
Cloud details: Few Clouds 610 m
2014/07/28 19:50 LGPZ 281950Z 27010KT 9999 FEW020 25/21 Q1012 NOSIG BLU
LGAD - Andravida (civ/A, Greece
Distance from station: ΝΔ 217km
Ενημερώθηκε: 28/07/2014 23:20
Few Clouds
Few Clouds
 Ανεμος από calm
Ανεμος: Απνοια
Θερμοκρασία: 24°C
Σημείο Δρόσου: 20°C
Υγρασία: 78%
Βαρόμετρο: 1011 hPa
Clouds: Few Clouds
Visibility: 10 km
Cloud details: Few Clouds 610 m
2014/07/28 20:20 LGAD 282020Z 00000KT 9999 FEW020 24/20 Q1011
 
LGKV - Kavala/Chrisoupo, Greece
Distance from station: ΒΑ 223km
Ενημερώθηκε: 28/07/2014 20:50
NOT Current
Few Clouds
Few Clouds
 Ανεμος από calm
Ανεμος: Απνοια
Θερμοκρασία: 27°C
Heat Index: 30°C
Σημείο Δρόσου: 23°C
Υγρασία: 79%
Βαρόμετρο: 1008 hPa
Clouds: Few Clouds
Visibility: 10 km
Cloud details: Few Clouds 1067 m
2014/07/28 17:50 LGKV 281750Z 00000KT 9999 FEW035 27/23 Q1008
LGKF - Kefallinia, Greece
Distance from station: ΔΝΔ 254km
Ενημερώθηκε: 28/07/2014 21:50
NOT Current
Few Clouds
Few Clouds
 Ανεμος από ΒΒΔ
Ανεμος: ΒΒΔ 15 km/h
Θερμοκρασία: 25°C
Σημείο Δρόσου: 21°C
Υγρασία: 79%
Βαρόμετρο: 1011 hPa
Clouds: Few Clouds
Visibility: 10 km
Cloud details: Few Clouds 549 m
2014/07/28 18:50 LGKF 281850Z 33008KT 9999 FEW018 25/21 Q1011
 
LGZA - Zakinthos Airpor, Greece
Distance from station: ΝΔ 255km
Ενημερώθηκε: 28/07/2014 23:20

 Ανεμος από varies
Ανεμος: varies 4 km/h
Θερμοκρασία: 23°C
Σημείο Δρόσου: 18°C
Υγρασία: 74%
Βαρόμετρο: 1011 hPa
2014/07/28 20:20 LGZA 282020Z AUTO VRB02KT //// // ////// 23/18 Q1011 RE//
LGKR - Ioannis Kapodist, Greece
Distance from station: Δ 262km
Ενημερώθηκε: 28/07/2014 23:20
Few Clouds
Few Clouds
 Ανεμος από calm
Ανεμος: Απνοια
Θερμοκρασία: 25°C
Σημείο Δρόσου: 20°C
Υγρασία: 74%
Βαρόμετρο: 1011 hPa
Clouds: Few Clouds
Visibility: 10 km
Cloud details: Few Clouds 549 m
2014/07/28 20:20 LGKR 282020Z 00000KT 9999 FEW018 25/20 Q1011 NOSIG
 
LGKL - Kalamata (hel-Af, Greece
Distance from station: ΝΝΔ 268km
Ενημερώθηκε: 28/07/2014 23:20
Few Clouds
Few Clouds
 Ανεμος από ΒΒΑ
Ανεμος: ΒΒΑ 7 km/h
Θερμοκρασία: 24°C
Σημείο Δρόσου: 20°C
Υγρασία: 78%
Βαρόμετρο: 1010 hPa
Clouds: Few Clouds
Visibility: 10 km
Cloud details: Few Clouds 914 m
2014/07/28 20:20 LGKL 282020Z 02004KT 9999 FEW030 24/20 Q1010
LGSO - Syros, Greece
Distance from station: ΝΑ 278km
Ενημερώθηκε: 28/07/2014 23:20

 Ανεμος από ΝΝΔ
Ανεμος: ΝΝΔ 17 km/h
Θερμοκρασία: 25°C
Σημείο Δρόσου: 22°C
Υγρασία: 83%
Βαρόμετρο: 1009 hPa
2014/07/28 20:20 LGSO 282020Z AUTO 20009KT //// // ////// 25/22 Q1009 RE//
 
LGHI - Chios Airport, Greece
Distance from station: ΑΝΑ 298km
Ενημερώθηκε: 28/07/2014 20:50
NOT Current
Αίθριος
Αίθριος
 Ανεμος από Ν
Ανεμος: Ν 11 km/h
Θερμοκρασία: 29°C
Heat Index: 28°C
Σημείο Δρόσου: 14°C
Υγρασία: 40%
Βαρόμετρο: 1008 hPa
Περίληψη: Αίθριος
Visibility: greater than 10 km
2014/07/28 17:50 LGHI 281750Z 19006KT CAVOK 29/14 Q1008
LGMK - Mikonos Island, Greece
Distance from station: ΝΑ 300km
Ενημερώθηκε: 28/07/2014 23:20
Αίθριος
Αίθριος
 Ανεμος από ΝΔ
Ανεμος: ΝΔ 11 km/h
Θερμοκρασία: 25°C
Σημείο Δρόσου: 20°C
Υγρασία: 74%
Βαρόμετρο: 1009 hPa
Περίληψη: Αίθριος
Visibility: greater than 10 km
2014/07/28 20:20 LGMK 282020Z 23006KT CAVOK 25/20 Q1009
 
LGAL - Alexandroupolis, Greece
Distance from station: ΒΑ 301km
Ενημερώθηκε: 28/07/2014 23:20
Few Clouds
Few Clouds
 Ανεμος από calm
Ανεμος: Απνοια
Θερμοκρασία: 25°C
Σημείο Δρόσου: 18°C
Υγρασία: 65%
Βαρόμετρο: 1008 hPa
Clouds: Few Clouds
Visibility: 10 km
Cloud details: Few Clouds 610 m
2014/07/28 20:20 LGAL 282020Z 00000KT 9999 FEW020 25/18 Q1008
LGMT - Mitilini, Greece
Distance from station: Α 316km
Ενημερώθηκε: 28/07/2014 22:50
Αίθριος
Αίθριος
 Ανεμος από calm
Ανεμος: Απνοια
Θερμοκρασία: 28°C
Heat Index: 29°C
Σημείο Δρόσου: 18°C
Υγρασία: 55%
Βαρόμετρο: 1009 hPa
Περίληψη: Αίθριος
Visibility: greater than 10 km
2014/07/28 19:50 LGMT 281950Z 00000KT CAVOK 28/18 Q1009
 
LGPA - Paros, Greece
Distance from station: ΝΑ 321km
Ενημερώθηκε: 28/07/2014 20:50
NOT Current

 Ανεμος από Α
Ανεμος: Α 9 km/h
Θερμοκρασία: 26°C
Σημείο Δρόσου: 20°C
Υγρασία: 70%
Βαρόμετρο: 1009 hPa
2014/07/28 17:50 LGPA 281750Z AUTO 09005KT //// // ////// 26/20 Q1009 RE//
LGNX - Naxos Airport, Greece
Distance from station: ΝΑ 330km
Ενημερώθηκε: 28/07/2014 18:50
NOT Current
Αίθριος
Αίθριος
 Ανεμος από Ν
Ανεμος: Ν 15 km/h
Θερμοκρασία: 29°C
Heat Index: 31°C
Σημείο Δρόσου: 20°C
Υγρασία: 58%
Βαρόμετρο: 1009 hPa
Περίληψη: Αίθριος
Visibility: greater than 10 km
2014/07/28 15:50 LGNX 281550Z 17008KT CAVOK 29/20 Q1009
 
LGKC - Kithira Arpt, Greece
Distance from station: Ν 343km
Ενημερώθηκε: 28/07/2014 14:50
NOT Current
Partly Cloudy
Partly Cloudy
 Ανεμος από ΔΝΔ
Ανεμος: ΔΝΔ 26 km/h
Θερμοκρασία: 28°C
Heat Index: 29°C
Σημείο Δρόσου: 19°C
Υγρασία: 58%
Βαρόμετρο: 1013 hPa
Clouds: Partly Cloudy
Visibility: 10 km
Cloud details: Partly Cloudy 213 m
2014/07/28 11:50 LGKC 281150Z 25014KT 200V290 9999 SCT007 28/19 Q1013
LBSF - Sofia (observato, Bulgaria
Distance from station: Β 367km
Ενημερώθηκε: 28/07/2014 23:00
Mostly Cloudy
Mostly Cloudy
 Ανεμος από Δ
Ανεμος: Δ 7 km/h
Θερμοκρασία: 20°C
Σημείο Δρόσου: 19°C
Υγρασία: 94%
Βαρόμετρο: 1013 hPa
Clouds: Mostly Cloudy
Visibility: 10 km
Cloud details: Mostly Cloudy 1707 m
2014/07/28 20:00 LBSF 282000Z 28002MPS 9999 BKN056 20/19 Q1013 TEMPO SHRA
 
LGSM - Samos Airport, Greece
Distance from station: ΑΝΑ 392km
Ενημερώθηκε: 28/07/2014 20:50
NOT Current
Αίθριος
Αίθριος
 Ανεμος από calm
Ανεμος: Απνοια
Θερμοκρασία: 27°C
Heat Index: 29°C
Σημείο Δρόσου: 20°C
Υγρασία: 66%
Βαρόμετρο: 1009 hPa
Περίληψη: Αίθριος
Visibility: greater than 10 km
2014/07/28 17:50 LGSM 281750Z 00000KT CAVOK 27/20 Q1009
LGSR - Santorini Island, Greece
Distance from station: ΝΑ 397km
Ενημερώθηκε: 28/07/2014 23:20
Αίθριος
Αίθριος
 Ανεμος από ΔΝΔ
Ανεμος: ΔΝΔ 20 km/h
Θερμοκρασία: 26°C
Σημείο Δρόσου: 17°C
Υγρασία: 58%
Βαρόμετρο: 1009 hPa
Περίληψη: Αίθριος
Visibility: greater than 10 km
2014/07/28 20:20 LGSR 282020Z 24011KT CAVOK 26/17 Q1009 NOSIG
 
LGSA - Souda/Khania (af, Greece
Distance from station: ΝΝΑ 439km
Ενημερώθηκε: 28/07/2014 23:20
Αίθριος
Αίθριος
 Ανεμος από ΒΔ
Ανεμος: ΒΔ 7 km/h
Θερμοκρασία: 27°C
Σημείο Δρόσου: 12°C
Υγρασία: 39%
Βαρόμετρο: 1010 hPa
Περίληψη: Αίθριος
Visibility: greater than 10 km
2014/07/28 20:20 LGSA 282020Z 32004KT CAVOK 27/12 Q1010
LGKO - Kos Airport, Greece
Distance from station: ΝΑ 460km
Ενημερώθηκε: 28/07/2014 23:20
Αίθριος
Αίθριος
 Ανεμος από ΒΔ
Ανεμος: ΒΔ 7 km/h
Θερμοκρασία: 26°C
Σημείο Δρόσου: 21°C
Υγρασία: 74%
Βαρόμετρο: 1010 hPa
Περίληψη: Αίθριος
Visibility: greater than 10 km
2014/07/28 20:20 LGKO 282020Z 32004KT CAVOK 26/21 Q1010
 
LGIR - Iraklion (civ/Af, Greece
Distance from station: ΝΝΑ 491km
Ενημερώθηκε: 28/07/2014 22:50
Αίθριος
Αίθριος
 Ανεμος από Ν
Ανεμος: Ν 6 km/h
Θερμοκρασία: 25°C
Σημείο Δρόσου: 21°C
Υγρασία: 79%
Βαρόμετρο: 1010 hPa
Περίληψη: Αίθριος
Visibility: greater than 10 km
2014/07/28 19:50 LGIR 281950Z 17003KT CAVOK 25/21 Q1010 NOSIG